Time;durP1;ratioP1;P1;durP2;ratioP2;P2;SDS_P1;SDS_P2;PMS_P1;PMS_P2;Temp;Humidity;BMP_temperature;BMP_pressure;BME280_temperature;BME280_humidity;BME280_pressure;Samples;Min_cycle;Max_cycle;Signal;HPM_P1;HPM_P2
2021/10/27 00:02:10;;;;;;;17.53;7.13;;;14.00;59.80;;;;;;5047634;28;20200;-49
2021/10/27 00:04:36;;;;;;;12.50;7.60;;;14.00;59.70;;;;;;5049349;28;20224;-52
2021/10/27 00:07:02;;;;;;;13.40;7.23;;;14.00;59.70;;;;;;5047538;28;20193;-49
2021/10/27 00:09:28;;;;;;;11.87;6.40;;;13.90;59.80;;;;;;5051669;28;20477;-52
2021/10/27 00:11:54;;;;;;;19.43;6.50;;;13.90;59.80;;;;;;5055197;28;20552;-53
2021/10/27 00:14:20;;;;;;;11.20;7.00;;;13.90;60.10;;;;;;5050290;28;21155;-53
2021/10/27 00:16:46;;;;;;;52.33;7.27;;;13.90;60.00;;;;;;5051834;28;20196;-52
2021/10/27 00:19:12;;;;;;;39.47;6.67;;;13.90;60.00;;;;;;5056430;28;20474;-52
2021/10/27 00:21:37;;;;;;;33.87;6.90;;;13.80;60.20;;;;;;5054593;28;20255;-51
2021/10/27 00:24:03;;;;;;;31.93;7.77;;;13.70;60.20;;;;;;5063717;28;20224;-53
2021/10/27 00:26:28;;;;;;;74.53;8.87;;;13.70;60.40;;;;;;5048961;28;20531;-51
2021/10/27 00:28:54;;;;;;;32.83;7.67;;;13.70;60.80;;;;;;5052393;28;20283;-53
2021/10/27 00:31:21;;;;;;;84.03;7.67;;;13.50;61.20;;;;;;5046925;28;20200;-49
2021/10/27 00:33:46;;;;;;;52.50;9.07;;;13.20;62.30;;;;;;5046518;28;20915;-50
2021/10/27 00:36:12;;;;;;;28.87;7.20;;;13.10;63.30;;;;;;5072406;28;20524;-52
2021/10/27 00:38:38;;;;;;;7.67;5.70;;;12.90;64.00;;;;;;5045611;28;20208;-49
2021/10/27 00:41:07;;;;;;;9.03;7.10;;;12.80;64.70;;;;;;5053009;28;20442;-51
2021/10/27 00:43:33;;;;;;;48.97;10.90;;;12.90;65.00;;;;;;5050223;28;20200;-51
2021/10/27 00:45:59;;;;;;;13.40;8.77;;;13.10;64.70;;;;;;5046343;28;20440;-51
2021/10/27 00:48:24;;;;;;;40.37;7.70;;;13.00;64.50;;;;;;5045999;28;20518;-52
2021/10/27 00:50:50;;;;;;;14.20;6.90;;;13.00;64.90;;;;;;5048611;28;20546;-50
2021/10/27 00:53:16;;;;;;;21.67;5.80;;;12.90;65.80;;;;;;5038594;28;20196;-50
2021/10/27 00:55:42;;;;;;;6.70;5.60;;;12.90;65.90;;;;;;5046645;28;20283;-51
2021/10/27 00:58:08;;;;;;;7.40;5.60;;;13.00;65.50;;;;;;5044712;28;20519;-52
2021/10/27 01:00:35;;;;;;;10.60;5.57;;;13.20;65.10;;;;;;5043062;28;20668;-52
2021/10/27 01:03:01;;;;;;;10.60;5.03;;;13.30;64.60;;;;;;5077477;28;20262;-52
2021/10/27 01:05:27;;;;;;;11.67;5.40;;;13.30;64.00;;;;;;5050385;28;20978;-53
2021/10/27 01:07:54;;;;;;;7.50;4.77;;;13.30;63.80;;;;;;5046544;28;20284;-49
2021/10/27 01:10:19;;;;;;;21.60;5.77;;;13.20;65.00;;;;;;5043929;28;20204;-51
2021/10/27 01:12:46;;;;;;;17.03;5.50;;;13.10;64.30;;;;;;5047276;28;20436;-51
2021/10/27 01:15:12;;;;;;;29.53;6.33;;;13.20;64.40;;;;;;5045338;28;20197;-52
2021/10/27 01:17:38;;;;;;;15.63;6.20;;;13.20;64.00;;;;;;5052588;28;20443;-51
2021/10/27 01:20:04;;;;;;;49.93;7.63;;;13.30;63.70;;;;;;5049638;28;20834;-51
2021/10/27 01:22:34;;;;;;;22.27;6.77;;;13.30;64.10;;;;;;5048068;28;20206;-52
2021/10/27 01:25:01;;;;;;;18.77;5.70;;;13.20;63.40;;;;;;5048506;28;20940;-51
2021/10/27 01:27:28;;;;;;;9.97;4.63;;;13.10;63.70;;;;;;5055699;28;20449;-49
2021/10/27 01:29:54;;;;;;;18.10;5.43;;;12.90;64.20;;;;;;5047838;28;20556;-50
2021/10/27 01:32:24;;;;;;;20.27;4.67;;;12.80;64.50;;;;;;5050192;28;20449;-52
2021/10/27 01:34:50;;;;;;;4.80;4.40;;;12.90;64.80;;;;;;5046232;28;20427;-48
2021/10/27 01:37:15;;;;;;;16.33;4.37;;;13.00;64.00;;;;;;5042287;28;20443;-52
2021/10/27 01:39:41;;;;;;;12.53;5.67;;;13.10;63.80;;;;;;5054515;28;20443;-51
2021/10/27 01:42:07;;;;;;;4.73;4.30;;;13.10;62.90;;;;;;5049631;28;20715;-52
2021/10/27 01:44:33;;;;;;;4.67;4.27;;;13.10;62.90;;;;;;5044837;28;20491;-52
2021/10/27 01:46:58;;;;;;;5.10;4.70;;;13.10;63.10;;;;;;5051456;28;20189;-51
2021/10/27 01:49:24;;;;;;;4.90;4.40;;;13.10;63.10;;;;;;5053864;28;20723;-51
2021/10/27 01:51:50;;;;;;;14.60;8.90;;;13.20;62.60;;;;;;5053392;28;20203;-51
2021/10/27 01:54:16;;;;;;;14.20;8.93;;;13.20;62.60;;;;;;5045396;28;20721;-52
2021/10/27 01:56:41;;;;;;;40.77;7.40;;;13.20;62.10;;;;;;5053741;28;20437;-52
2021/10/27 01:59:07;;;;;;;26.17;5.20;;;13.30;61.80;;;;;;5055226;28;20226;-49
2021/10/27 02:01:32;;;;;;;22.97;4.83;;;13.10;61.50;;;;;;5049496;28;20188;-50
2021/10/27 02:03:58;;;;;;;13.17;4.90;;;12.90;62.20;;;;;;5049876;28;20560;-52
2021/10/27 02:06:24;;;;;;;17.83;5.70;;;12.80;62.90;;;;;;5047178;28;20428;-51
2021/10/27 02:08:50;;;;;;;7.10;4.80;;;12.90;63.10;;;;;;5048791;28;20231;-51
2021/10/27 02:11:15;;;;;;;12.20;4.90;;;13.00;62.90;;;;;;5053180;28;20187;-51
2021/10/27 02:13:41;;;;;;;27.20;7.23;;;13.00;62.80;;;;;;5051679;28;20203;-49
2021/10/27 02:16:08;;;;;;;40.47;7.53;;;13.00;62.40;;;;;;5042296;28;20200;-52
2021/10/27 02:18:34;;;;;;;13.33;5.50;;;13.10;62.20;;;;;;5052896;28;20275;-51
2021/10/27 02:20:59;;;;;;;24.13;5.80;;;13.00;62.00;;;;;;5044502;28;20977;-52
2021/10/27 02:23:25;;;;;;;9.97;5.20;;;12.80;61.90;;;;;;5048083;28;20217;-53
2021/10/27 02:25:51;;;;;;;8.00;3.70;;;12.60;62.20;;;;;;5048371;28;20552;-52
2021/10/27 02:28:17;;;;;;;18.70;4.63;;;12.60;62.80;;;;;;5045867;28;20189;-51
2021/10/27 02:30:43;;;;;;;14.03;5.33;;;12.60;62.60;;;;;;5044968;28;20193;-52
2021/10/27 02:33:09;;;;;;;10.00;5.23;;;12.60;63.30;;;;;;5049250;28;20439;-52
2021/10/27 02:35:34;;;;;;;10.20;5.07;;;12.70;63.30;;;;;;5039873;28;20193;-50
2021/10/27 02:38:00;;;;;;;14.10;4.60;;;12.70;63.10;;;;;;5041135;28;20242;-50
2021/10/27 02:40:25;;;;;;;9.03;4.20;;;12.70;62.40;;;;;;5046297;28;20281;-52
2021/10/27 02:42:51;;;;;;;18.43;5.07;;;12.70;62.40;;;;;;5045515;28;20200;-51
2021/10/27 02:45:18;;;;;;;5.40;4.07;;;12.80;62.50;;;;;;5046331;28;20751;-52
2021/10/27 02:47:44;;;;;;;17.83;4.37;;;12.80;62.10;;;;;;5050621;28;20917;-52
2021/10/27 02:50:12;;;;;;;20.30;4.80;;;12.50;62.60;;;;;;5051242;28;20518;-52
2021/10/27 02:52:38;;;;;;;7.70;4.90;;;12.30;63.70;;;;;;5055098;28;20480;-52
2021/10/27 02:55:05;;;;;;;13.37;5.33;;;12.40;64.10;;;;;;5046249;28;20554;-53
2021/10/27 02:57:31;;;;;;;7.47;4.67;;;12.60;64.10;;;;;;5052119;28;20447;-50
2021/10/27 02:59:57;;;;;;;16.40;5.07;;;12.60;63.60;;;;;;5046079;28;20439;-52
2021/10/27 03:02:22;;;;;;;5.80;4.20;;;12.70;63.40;;;;;;5048727;28;20484;-51
2021/10/27 03:04:48;;;;;;;12.03;5.03;;;12.60;63.30;;;;;;5050271;28;20866;-51
2021/10/27 03:07:14;;;;;;;16.87;5.07;;;12.50;63.50;;;;;;5045631;28;20192;-50
2021/10/27 03:09:39;;;;;;;24.37;5.10;;;12.60;63.70;;;;;;5045249;28;20196;-52
2021/10/27 03:12:06;;;;;;;29.67;5.80;;;12.60;63.40;;;;;;5050573;28;20194;-52
2021/10/27 03:14:32;;;;;;;12.93;5.00;;;12.40;63.20;;;;;;5052740;28;20216;-53
2021/10/27 03:16:58;;;;;;;13.93;5.13;;;12.40;64.00;;;;;;5055961;28;20469;-51
2021/10/27 03:19:23;;;;;;;11.30;4.97;;;12.50;64.10;;;;;;5055000;28;20490;-52
2021/10/27 03:21:49;;;;;;;9.83;5.33;;;12.60;63.90;;;;;;5057973;28;20202;-52
2021/10/27 03:24:15;;;;;;;17.17;5.07;;;12.60;63.70;;;;;;5051424;28;20224;-51
2021/10/27 03:26:41;;;;;;;5.30;4.80;;;12.60;63.90;;;;;;5056723;28;20276;-52
2021/10/27 03:29:06;;;;;;;7.60;5.20;;;12.60;63.80;;;;;;5051827;28;20553;-52
2021/10/27 03:31:32;;;;;;;6.23;4.50;;;12.50;64.20;;;;;;5052067;28;20656;-52
2021/10/27 03:33:58;;;;;;;8.13;4.53;;;12.50;64.40;;;;;;5055586;28;20210;-52
2021/10/27 03:36:24;;;;;;;6.00;4.57;;;12.60;64.30;;;;;;5049921;28;20192;-52
2021/10/27 03:38:50;;;;;;;7.93;5.17;;;12.70;63.80;;;;;;5047920;28;20193;-52
2021/10/27 03:41:16;;;;;;;11.00;5.20;;;12.60;63.40;;;;;;5047631;28;20506;-52
2021/10/27 03:43:42;;;;;;;27.83;5.00;;;12.20;63.50;;;;;;5050172;28;20656;-52
2021/10/27 03:46:08;;;;;;;15.90;5.50;;;12.20;64.80;;;;;;5047210;28;20193;-50
2021/10/27 03:48:33;;;;;;;14.13;4.90;;;11.40;66.50;;;;;;5054994;28;20207;-53
2021/10/27 03:50:59;;;;;;;4.33;3.93;;;11.30;67.70;;;;;;5059119;28;21231;-53
2021/10/27 03:53:25;;;;;;;12.47;4.27;;;11.40;67.80;;;;;;5056720;28;20232;-52
2021/10/27 03:55:50;;;;;;;4.60;4.20;;;11.40;66.90;;;;;;5048560;28;20930;-51
2021/10/27 03:58:16;;;;;;;11.97;4.20;;;11.30;67.40;;;;;;5050365;28;20191;-52
2021/10/27 04:00:42;;;;;;;25.00;5.50;;;11.50;67.20;;;;;;5051850;28;20287;-52
2021/10/27 04:03:08;;;;;;;25.63;4.70;;;11.10;67.90;;;;;;5047327;28;20663;-52
2021/10/27 04:05:33;;;;;;;14.40;4.83;;;11.00;68.10;;;;;;5042395;28;20240;-51
2021/10/27 04:07:59;;;;;;;9.27;4.80;;;11.00;68.10;;;;;;5039444;28;20446;-51
2021/10/27 04:10:25;;;;;;;9.43;7.03;;;11.10;68.40;;;;;;5042701;28;20228;-52
2021/10/27 04:12:51;;;;;;;32.37;7.90;;;11.30;68.20;;;;;;5044671;28;20586;-51
2021/10/27 04:15:17;;;;;;;9.17;6.30;;;11.50;67.10;;;;;;5052448;28;20196;-52
2021/10/27 04:17:43;;;;;;;27.67;5.57;;;11.70;66.70;;;;;;5043899;28;20439;-53
2021/10/27 04:20:10;;;;;;;17.50;6.47;;;11.60;65.30;;;;;;5046232;28;21082;-49
2021/10/27 04:22:39;;;;;;;28.43;6.90;;;11.30;66.20;;;;;;5052372;28;20545;-52
2021/10/27 04:25:06;;;;;;;54.50;7.67;;;11.30;67.40;;;;;;5037972;28;20582;-52
2021/10/27 04:27:31;;;;;;;13.33;5.60;;;11.20;67.50;;;;;;5048276;28;20435;-51
2021/10/27 04:29:57;;;;;;;6.80;6.10;;;11.10;68.20;;;;;;5046667;28;20523;-51
2021/10/27 04:32:23;;;;;;;25.50;5.60;;;11.10;68.00;;;;;;5049204;28;20194;-52
2021/10/27 04:34:48;;;;;;;27.17;5.70;;;11.00;68.20;;;;;;5040448;28;20204;-51
2021/10/27 04:37:16;;;;;;;53.17;6.57;;;11.00;68.90;;;;;;5045408;28;20203;-52
2021/10/27 04:39:42;;;;;;;6.10;5.40;;;10.70;68.60;;;;;;5057376;28;21093;-52
2021/10/27 04:42:07;;;;;;;12.83;6.00;;;10.70;69.90;;;;;;5041337;28;20493;-52
2021/10/27 04:44:33;;;;;;;25.63;6.50;;;11.10;69.30;;;;;;5042220;28;20479;-51
2021/10/27 04:47:03;;;;;;;17.80;5.43;;;11.30;68.00;;;;;;5053651;28;20719;-51
2021/10/27 04:49:29;;;;;;;8.90;5.70;;;11.20;67.60;;;;;;5054410;28;20443;-51
2021/10/27 04:51:55;;;;;;;12.23;5.77;;;11.30;67.60;;;;;;5053276;28;20435;-52
2021/10/27 04:54:20;;;;;;;10.30;5.40;;;11.50;67.00;;;;;;5047250;28;20472;-52
2021/10/27 04:56:46;;;;;;;29.03;5.77;;;11.40;66.60;;;;;;5047786;28;20214;-49
2021/10/27 04:59:12;;;;;;;6.90;4.93;;;11.50;66.50;;;;;;5049979;28;20196;-51
2021/10/27 05:01:38;;;;;;;6.03;4.93;;;11.40;66.30;;;;;;5052342;28;20445;-52
2021/10/27 05:04:04;;;;;;;11.57;4.70;;;11.40;66.40;;;;;;5056103;28;20569;-51
2021/10/27 05:06:30;;;;;;;41.77;6.37;;;11.50;65.90;;;;;;5050001;28;20225;-50
2021/10/27 05:08:55;;;;;;;13.63;5.33;;;11.30;65.50;;;;;;5049940;28;21030;-50
2021/10/27 05:11:21;;;;;;;7.87;5.47;;;11.10;66.50;;;;;;5049188;28;20192;-49
2021/10/27 05:13:46;;;;;;;6.30;4.70;;;11.30;66.80;;;;;;5054534;28;20241;-52
2021/10/27 05:16:12;;;;;;;5.53;4.47;;;11.20;66.50;;;;;;5050706;28;20534;-50
2021/10/27 05:18:38;;;;;;;6.60;4.77;;;11.40;66.40;;;;;;5050907;28;20250;-51
2021/10/27 05:21:03;;;;;;;7.90;4.83;;;11.20;66.10;;;;;;5054224;28;20189;-51
2021/10/27 05:23:29;;;;;;;9.67;5.47;;;11.40;67.10;;;;;;5052433;28;20281;-52
2021/10/27 05:25:55;;;;;;;6.50;5.53;;;11.70;67.70;;;;;;5050185;28;20228;-51
2021/10/27 05:28:20;;;;;;;6.57;4.97;;;12.00;67.30;;;;;;5047903;28;20255;-50
2021/10/27 05:30:47;;;;;;;7.33;4.80;;;12.20;66.60;;;;;;5053185;28;20193;-53
2021/10/27 05:33:14;;;;;;;6.13;5.57;;;12.40;66.20;;;;;;5042946;28;20200;-51
2021/10/27 05:35:40;;;;;;;8.10;4.60;;;12.60;66.00;;;;;;5050721;28;20482;-52
2021/10/27 05:38:06;;;;;;;5.63;4.57;;;12.80;65.00;;;;;;5049787;28;20527;-51
2021/10/27 05:40:32;;;;;;;9.10;6.87;;;12.80;63.50;;;;;;5050323;28;20550;-52
2021/10/27 05:42:58;;;;;;;9.03;5.40;;;12.70;62.20;;;;;;5049747;28;20186;-51
2021/10/27 05:45:26;;;;;;;12.43;5.83;;;12.50;62.90;;;;;;5045280;28;20264;-50
2021/10/27 05:47:56;;;;;;;18.73;5.03;;;12.40;62.30;;;;;;5042431;28;20196;-51
2021/10/27 05:50:27;;;;;;;10.43;4.93;;;12.60;62.60;;;;;;5043147;28;20489;-50
2021/10/27 05:55:37;;;;;;;5.80;4.83;;;12.60;62.10;;;;;;5042021;28;20843;-52
2021/10/27 05:58:05;;;;;;;27.47;5.27;;;12.40;62.00;;;;;;5047432;28;20439;-52
2021/10/27 06:00:32;;;;;;;12.67;4.43;;;12.40;62.30;;;;;;5044498;28;20185;-47
2021/10/27 06:02:58;;;;;;;10.97;4.70;;;12.50;61.60;;;;;;5049991;28;20581;-52
2021/10/27 06:05:24;;;;;;;17.47;5.97;;;12.40;61.60;;;;;;5039993;28;21277;-48
2021/10/27 06:07:50;;;;;;;9.97;5.80;;;12.40;61.30;;;;;;5050784;28;20438;-51
2021/10/27 06:10:22;;;;;;;11.33;5.33;;;12.50;61.90;;;;;;5057360;28;20205;-51
2021/10/27 06:12:52;;;;;;;6.20;4.70;;;12.50;62.20;;;;;;5049194;28;21109;-49
2021/10/27 06:15:19;;;;;;;17.33;6.33;;;12.60;62.20;;;;;;5051444;28;20927;-52
2021/10/27 06:17:45;;;;;;;6.97;4.80;;;12.60;60.40;;;;;;5052615;28;20496;-51
2021/10/27 06:20:12;;;;;;;5.87;5.37;;;12.20;60.20;;;;;;5050904;28;20463;-51
2021/10/27 06:22:38;;;;;;;14.80;5.67;;;12.20;62.00;;;;;;5046783;28;20426;-51
2021/10/27 06:25:07;;;;;;;7.17;5.00;;;12.30;61.70;;;;;;5041187;28;21045;-52
2021/10/27 06:27:34;;;;;;;38.73;5.90;;;12.30;61.80;;;;;;5030599;28;20443;-51
2021/10/27 06:30:23;;;;;;;14.30;5.10;;;12.10;61.80;;;;;;5047719;28;20442;-52
2021/10/27 06:32:56;;;;;;;8.47;4.83;;;11.90;64.90;;;;;;5038428;28;20474;-53
2021/10/27 06:35:29;;;;;;;6.00;5.40;;;12.00;66.70;;;;;;5077475;28;20437;-53
2021/10/27 06:46:30;;;;;;;8.67;5.27;;;13.40;64.70;;;;;;5035642;28;20627;-48
2021/10/27 06:48:56;;;;;;;9.67;6.00;;;13.70;63.40;;;;;;5045095;28;20435;-52
2021/10/27 06:51:22;;;;;;;21.47;7.90;;;13.80;62.60;;;;;;5045587;28;20921;-50
2021/10/27 06:53:48;;;;;;;8.53;4.80;;;14.00;60.70;;;;;;5054618;28;20192;-49
2021/10/27 06:56:15;;;;;;;7.80;5.37;;;14.10;60.30;;;;;;5054399;28;20272;-51
2021/10/27 07:15:02;;;;;;;5.57;5.07;;;14.40;59.10;;;;;;5053920;28;21245;-50
2021/10/27 07:17:29;;;;;;;5.03;4.53;;;14.50;59.20;;;;;;5053670;28;20931;-49
2021/10/27 07:19:55;;;;;;;4.63;4.23;;;14.60;58.60;;;;;;5053531;28;20557;-52
2021/10/27 07:22:21;;;;;;;4.80;4.40;;;14.80;58.80;;;;;;5054558;28;20589;-49
2021/10/27 07:24:46;;;;;;;7.20;6.60;;;14.50;58.90;;;;;;5054058;28;20228;-50
2021/10/27 07:27:13;;;;;;;5.20;4.70;;;14.40;58.60;;;;;;5052325;28;20192;-50
2021/10/27 07:29:42;;;;;;;7.03;6.43;;;14.40;59.80;;;;;;5053379;28;20195;-49
2021/10/27 07:32:09;;;;;;;5.50;4.90;;;14.70;58.80;;;;;;5054234;28;20450;-48
2021/10/27 07:34:38;;;;;;;5.83;5.33;;;15.00;57.70;;;;;;5053524;28;20469;-50
2021/10/27 07:40:07;;;;;;;6.80;6.10;;;15.40;57.50;;;;;;5053846;28;20442;-52
2021/10/27 07:42:39;;;;;;;6.70;6.00;;;15.60;56.80;;;;;;5046319;28;20466;-52
2021/10/27 07:45:05;;;;;;;5.97;5.43;;;15.70;56.50;;;;;;5053415;28;20478;-51
2021/10/27 07:47:31;;;;;;;7.30;6.30;;;15.90;56.30;;;;;;5074157;28;20441;-51
2021/10/27 07:49:57;;;;;;;5.87;5.30;;;15.90;56.70;;;;;;5058868;28;20938;-51
2021/10/27 07:52:22;;;;;;;7.20;6.60;;;16.00;56.70;;;;;;5034917;28;20189;-49
2021/10/27 07:54:48;;;;;;;7.07;6.10;;;15.90;55.70;;;;;;5052970;28;20200;-49
2021/10/27 07:57:14;;;;;;;11.37;8.60;;;15.50;56.30;;;;;;5050504;28;20200;-51
2021/10/27 07:59:40;;;;;;;8.00;6.50;;;15.50;57.70;;;;;;5052380;28;20334;-49
2021/10/27 08:02:06;;;;;;;7.83;7.03;;;15.70;58.10;;;;;;5053803;28;20869;-51
2021/10/27 08:04:33;;;;;;;7.77;6.83;;;15.70;57.50;;;;;;5053135;28;20228;-52
2021/10/27 08:06:58;;;;;;;8.37;7.67;;;15.90;57.50;;;;;;5052971;28;20457;-51
2021/10/27 08:09:24;;;;;;;6.83;6.23;;;15.90;57.20;;;;;;5050660;28;20443;-51
2021/10/27 08:11:50;;;;;;;6.87;6.27;;;15.80;57.00;;;;;;5049091;28;20296;-51
2021/10/27 08:14:16;;;;;;;9.20;6.90;;;15.70;58.20;;;;;;5044664;28;20188;-51
2021/10/27 08:16:42;;;;;;;6.17;5.60;;;15.80;57.80;;;;;;5052162;28;20239;-52
2021/10/27 08:19:09;;;;;;;7.27;6.50;;;15.80;57.90;;;;;;5051806;28;20244;-52
2021/10/27 08:21:34;;;;;;;7.37;6.67;;;15.80;57.40;;;;;;5052818;28;20425;-50
2021/10/27 08:24:01;;;;;;;5.83;5.33;;;15.90;57.50;;;;;;5053444;28;20894;-49
2021/10/27 08:26:28;;;;;;;7.40;6.77;;;15.90;57.60;;;;;;5046975;28;20188;-51
2021/10/27 08:28:59;;;;;;;6.63;6.03;;;16.10;57.10;;;;;;5053387;28;20430;-51
2021/10/27 08:31:44;;;;;;;6.70;5.93;;;16.30;57.40;;;;;;5051621;28;20825;-51
2021/10/27 08:34:16;;;;;;;5.30;4.80;;;16.40;57.60;;;;;;5042838;28;20865;-52
2021/10/27 08:36:42;;;;;;;7.20;6.57;;;15.90;58.30;;;;;;5044451;28;20507;-48
2021/10/27 08:39:09;;;;;;;7.90;7.03;;;16.10;59.60;;;;;;5041128;28;20432;-52
2021/10/27 08:41:39;;;;;;;8.63;7.83;;;16.30;58.10;;;;;;5044103;28;20223;-51
2021/10/27 08:44:05;;;;;;;8.27;6.43;;;16.10;57.60;;;;;;5042520;28;20811;-49
2021/10/27 08:46:33;;;;;;;6.67;6.03;;;16.10;58.20;;;;;;5042701;28;20836;-50
2021/10/27 08:49:03;;;;;;;7.77;7.00;;;16.40;58.10;;;;;;5052212;28;20481;-51
2021/10/27 08:51:29;;;;;;;5.80;5.30;;;16.50;57.50;;;;;;5038986;28;20443;-51
2021/10/27 08:53:57;;;;;;;7.23;6.50;;;16.60;57.70;;;;;;5047728;28;20806;-51
2021/10/27 08:56:24;;;;;;;7.77;6.97;;;16.90;57.00;;;;;;5049556;28;20743;-52
2021/10/27 08:58:56;;;;;;;6.60;5.63;;;17.00;56.50;;;;;;5052695;28;20953;-51
2021/10/27 09:06:44;;;;;;;6.53;5.93;;;17.60;55.50;;;;;;5042084;28;20435;-50
2021/10/27 09:40:34;;;;;;;6.03;4.73;;;19.50;53.20;;;;;;5051041;28;20863;-52
2021/10/27 10:05:13;;;;;;;9.40;8.23;;;22.40;48.30;;;;;;5045202;28;20605;-52
2021/10/27 10:07:39;;;;;;;7.10;6.40;;;22.50;47.60;;;;;;5042657;28;20443;-51
2021/10/27 10:10:08;;;;;;;6.90;6.20;;;22.70;46.50;;;;;;5038383;28;20985;-50
2021/10/27 10:12:48;;;;;;;6.70;5.80;;;22.80;47.00;;;;;;5048366;28;20463;-50
2021/10/27 10:15:17;;;;;;;6.50;5.83;;;22.90;46.00;;;;;;5037332;28;20443;-52
2021/10/27 10:17:43;;;;;;;5.70;5.20;;;23.10;45.70;;;;;;5047315;28;20445;-52
2021/10/27 10:20:13;;;;;;;7.53;5.67;;;23.10;45.90;;;;;;5042624;28;20502;-53
2021/10/27 10:22:40;;;;;;;5.97;4.67;;;23.20;45.20;;;;;;5041232;28;20447;-52
2021/10/27 10:25:17;;;;;;;4.97;3.90;;;23.30;45.30;;;;;;5047653;28;20566;-51
2021/10/27 10:27:45;;;;;;;7.93;5.20;;;23.40;45.80;;;;;;5040446;28;20440;-52
2021/10/27 10:30:37;;;;;;;5.93;5.43;;;23.50;45.50;;;;;;5044573;28;20485;-51
2021/10/27 10:33:07;;;;;;;5.20;4.77;;;23.70;45.20;;;;;;5037025;28;20444;-51
2021/10/27 10:35:57;;;;;;;4.97;4.57;;;23.80;45.50;;;;;;5045543;28;20517;-53
2021/10/27 10:38:59;;;;;;;5.03;4.40;;;24.10;44.80;;;;;;5045398;28;20435;-52
2021/10/27 10:58:11;;;;;;;3.20;2.90;;;25.00;42.50;;;;;;5038446;28;20810;-53
2021/10/27 11:00:54;;;;;;;2.30;2.10;;;24.90;42.00;;;;;;5034415;28;20432;-49
2021/10/27 11:23:28;;;;;;;1.80;1.70;;;24.80;40.70;;;;;;5040992;28;20479;-53
2021/10/27 11:37:41;;;;;;;1.93;1.73;;;25.20;39.80;;;;;;5048533;28;20805;-52
2021/10/27 11:40:32;;;;;;;2.53;1.90;;;25.00;39.20;;;;;;5049855;28;20430;-51
2021/10/27 11:45:54;;;;;;;1.90;1.70;;;24.80;39.90;;;;;;5050878;28;20554;-52
2021/10/27 11:50:41;;;;;;;2.47;1.70;;;24.90;39.80;;;;;;5050317;28;20945;-52
2021/10/27 11:53:25;;;;;;;1.80;1.67;;;25.00;40.20;;;;;;5048596;28;20439;-52
2021/10/27 11:55:53;;;;;;;1.97;1.60;;;25.20;39.40;;;;;;5042359;28;20454;-52
2021/10/27 11:58:20;;;;;;;2.10;1.53;;;25.30;38.00;;;;;;5048432;28;20428;-53
2021/10/27 12:00:50;;;;;;;3.50;1.60;;;25.50;38.70;;;;;;5053548;28;20941;-50
2021/10/27 12:03:18;;;;;;;2.50;2.03;;;24.90;39.70;;;;;;5047849;28;20433;-52
2021/10/27 12:11:29;;;;;;;2.20;1.80;;;25.90;38.50;;;;;;5010082;28;20440;-52
2021/10/27 12:14:01;;;;;;;1.70;1.53;;;26.00;36.40;;;;;;5022321;28;20211;-51
2021/10/27 12:17:01;;;;;;;3.10;1.90;;;26.00;37.40;;;;;;5046833;28;20451;-52
2021/10/27 12:19:31;;;;;;;2.30;2.00;;;26.20;37.00;;;;;;5047646;28;20541;-51
2021/10/27 12:22:08;;;;;;;2.40;1.60;;;26.30;36.40;;;;;;5040295;28;20523;-52
2021/10/27 12:24:39;;;;;;;1.50;1.30;;;26.20;36.70;;;;;;5039287;28;20486;-49
2021/10/27 12:27:24;;;;;;;1.50;1.40;;;26.30;37.00;;;;;;5051840;28;20431;-51
2021/10/27 12:29:58;;;;;;;1.53;1.43;;;26.40;36.20;;;;;;5043445;28;20451;-46
2021/10/27 12:32:26;;;;;;;2.60;1.50;;;26.40;36.30;;;;;;5038014;28;20825;-48
2021/10/27 12:34:57;;;;;;;1.50;1.40;;;26.50;36.40;;;;;;5039886;28;20431;-51
2021/10/27 12:40:35;;;;;;;1.63;1.43;;;26.30;35.80;;;;;;5038610;28;20975;-51
2021/10/27 12:43:16;;;;;;;4.53;1.43;;;26.50;35.80;;;;;;5045016;28;21027;-52
2021/10/27 12:45:50;;;;;;;2.33;1.37;;;26.60;35.30;;;;;;5041433;28;21006;-47
2021/10/27 12:48:24;;;;;;;1.60;1.50;;;26.90;35.50;;;;;;5044825;28;20452;-49
2021/10/27 12:50:54;;;;;;;2.30;1.53;;;27.00;34.70;;;;;;5041909;28;20431;-49
2021/10/27 12:53:45;;;;;;;1.90;1.60;;;27.00;34.60;;;;;;5044812;28;20443;-47
2021/10/27 12:56:22;;;;;;;1.90;1.70;;;27.00;35.10;;;;;;5043665;28;20453;-49
2021/10/27 12:58:56;;;;;;;2.10;1.47;;;27.00;35.50;;;;;;5046191;28;21066;-47
2021/10/27 13:01:49;;;;;;;2.50;1.50;;;27.20;34.50;;;;;;5038994;28;20430;-49
2021/10/27 13:06:57;;;;;;;2.77;1.30;;;27.40;34.70;;;;;;5047783;28;20845;-50
2021/10/27 13:14:52;;;;;;;3.00;1.40;;;26.70;33.40;;;;;;5052180;28;20438;-48
2021/10/27 13:20:00;;;;;;;1.40;1.30;;;26.90;34.10;;;;;;5051406;28;20886;-50
2021/10/27 13:31:05;;;;;;;1.50;1.17;;;27.50;33.80;;;;;;5042337;28;20450;-48
2021/10/27 13:33:31;;;;;;;1.50;1.10;;;27.50;33.90;;;;;;5048647;28;20457;-49
2021/10/27 13:35:57;;;;;;;2.93;1.57;;;27.00;33.70;;;;;;5052517;28;20900;-48
2021/10/27 13:38:26;;;;;;;1.90;1.57;;;27.00;33.60;;;;;;5045659;28;20189;-49
2021/10/27 13:40:52;;;;;;;1.20;1.10;;;27.20;34.50;;;;;;5046212;28;20544;-50
2021/10/27 13:43:28;;;;;;;2.63;1.33;;;27.20;33.20;;;;;;5043540;28;20424;-50
2021/10/27 14:07:46;;;;;;;2.10;1.73;;;27.40;33.40;;;;;;5045234;28;20530;-51
2021/10/27 14:10:47;;;;;;;2.40;1.40;;;27.40;33.30;;;;;;5045367;28;20435;-51
2021/10/27 14:13:14;;;;;;;1.57;1.47;;;27.30;33.20;;;;;;5040698;28;20446;-47
2021/10/27 14:48:22;;;;;;;2.97;2.20;;;27.00;33.40;;;;;;5046755;28;20431;-51
2021/10/27 15:15:35;;;;;;;2.40;1.97;;;27.00;34.20;;;;;;5051161;28;20496;-52
2021/10/27 15:21:32;;;;;;;1.80;1.60;;;26.80;35.60;;;;;;5054204;28;20464;-49
2021/10/27 15:29:57;;;;;;;3.40;1.40;;;26.60;35.70;;;;;;5053884;28;20452;-49
2021/10/27 15:34:55;;;;;;;2.60;1.70;;;26.50;36.00;;;;;;5041639;28;20555;-51
2021/10/27 15:51:00;;;;;;;2.40;1.90;;;25.90;36.50;;;;;;5053316;28;20481;-48
2021/10/27 15:53:25;;;;;;;1.53;1.43;;;25.80;36.70;;;;;;5054036;28;20799;-47
2021/10/27 15:55:51;;;;;;;1.73;1.63;;;25.70;36.90;;;;;;5051153;28;20438;-49
2021/10/27 15:58:17;;;;;;;5.10;2.27;;;25.70;37.10;;;;;;5054387;28;20204;-51
2021/10/27 16:00:42;;;;;;;2.87;1.73;;;25.50;37.30;;;;;;5052998;28;20581;-51
2021/10/27 16:03:09;;;;;;;2.60;2.00;;;25.40;37.60;;;;;;5053963;28;20299;-49
2021/10/27 16:05:39;;;;;;;2.80;1.70;;;25.40;37.80;;;;;;5052203;28;20232;-49
2021/10/27 16:08:07;;;;;;;1.47;1.37;;;25.30;37.90;;;;;;5053679;28;20435;-51
2021/10/27 16:10:34;;;;;;;3.60;2.20;;;25.20;38.00;;;;;;5051309;28;20435;-49
2021/10/27 16:13:00;;;;;;;3.80;2.90;;;25.10;38.20;;;;;;5043152;28;20501;-49
2021/10/27 16:15:36;;;;;;;4.17;2.67;;;25.00;38.40;;;;;;5047379;28;20423;-48
2021/10/27 16:18:13;;;;;;;3.83;2.67;;;24.90;38.90;;;;;;5052502;28;20569;-49
2021/10/27 16:20:44;;;;;;;4.30;3.27;;;24.30;40.00;;;;;;5052313;28;20498;-50
2021/10/27 16:23:12;;;;;;;3.50;3.20;;;24.10;40.40;;;;;;5053639;28;20526;-51
2021/10/27 16:25:39;;;;;;;4.00;3.43;;;24.10;40.50;;;;;;5052221;28;20990;-50
2021/10/27 16:28:06;;;;;;;3.20;2.90;;;24.10;40.70;;;;;;5051660;28;20438;-48
2021/10/27 16:30:32;;;;;;;3.43;3.13;;;24.00;40.80;;;;;;5052575;28;20468;-51
2021/10/27 16:32:58;;;;;;;4.23;3.20;;;24.00;41.00;;;;;;5053426;28;20462;-49
2021/10/27 16:35:24;;;;;;;5.10;4.60;;;23.90;41.20;;;;;;5052726;28;20766;-49
2021/10/27 16:37:50;;;;;;;5.43;4.67;;;23.80;41.30;;;;;;5049910;28;20446;-50
2021/10/27 16:40:17;;;;;;;6.13;5.50;;;23.80;41.60;;;;;;5052642;28;20431;-50
2021/10/27 16:42:43;;;;;;;7.77;5.80;;;23.70;41.70;;;;;;5053107;28;20196;-49
2021/10/27 16:45:11;;;;;;;6.67;5.23;;;23.60;41.90;;;;;;5052360;28;20558;-47
2021/10/27 16:47:37;;;;;;;7.80;5.23;;;23.60;42.20;;;;;;5058244;28;20778;-49
2021/10/27 16:50:07;;;;;;;5.83;5.13;;;23.40;42.20;;;;;;5051560;28;20969;-49
2021/10/27 16:52:32;;;;;;;6.33;5.20;;;23.40;42.40;;;;;;5052722;28;20435;-49
2021/10/27 16:54:58;;;;;;;7.47;5.57;;;23.30;42.60;;;;;;5052400;28;20472;-48
2021/10/27 16:57:26;;;;;;;6.77;5.50;;;23.30;42.80;;;;;;5052292;28;20197;-48
2021/10/27 16:59:51;;;;;;;8.93;6.13;;;23.20;42.90;;;;;;5049944;28;20270;-50
2021/10/27 17:02:17;;;;;;;7.87;5.93;;;23.10;43.00;;;;;;5052484;28;20470;-48
2021/10/27 17:04:43;;;;;;;6.00;5.00;;;23.10;43.00;;;;;;5050133;28;20223;-50
2021/10/27 17:07:09;;;;;;;11.00;5.73;;;23.00;43.10;;;;;;5052255;28;20185;-48
2021/10/27 17:09:36;;;;;;;7.40;5.40;;;23.00;43.20;;;;;;5041847;28;20284;-52
2021/10/27 17:12:02;;;;;;;7.63;5.03;;;22.90;43.40;;;;;;5048560;28;20201;-50
2021/10/27 17:14:27;;;;;;;10.50;5.67;;;22.60;44.00;;;;;;5052052;28;20450;-52
2021/10/27 17:16:53;;;;;;;8.73;6.77;;;22.40;44.60;;;;;;5051832;28;20570;-52
2021/10/27 17:19:19;;;;;;;16.10;8.93;;;22.30;44.90;;;;;;5050902;28;20324;-49
2021/10/27 17:21:45;;;;;;;12.50;8.10;;;22.30;44.90;;;;;;5044648;28;20196;-51
2021/10/27 17:24:16;;;;;;;11.37;7.67;;;22.30;45.00;;;;;;5043990;28;20577;-51